首页
METAR-TAF:

METAR-TAF

机场 :

錫達拉皮茲, 艾奥瓦州, 美国

纬度: 41-53-04N, 经度: 091-42-38W, 海拔: 263米

当前天气观测

该预报发布于17分钟前的07:52 UTC
风速10节,风向南转南东
温度 1°C
湿度 86%
气压 1018 hPa
能見度: 6.4公里
天空无云
轻雾

METAR: KCID 170752Z AUTO 15010KT 4SM BR CLR 01/M01 A3005 RMK AO2 SLP182 T00111011

时间: 02:09 (08:09 UTC)

预报

该预报发布于2小时和49分钟前的05:20 UTC
预报有效从17日的 06点(UTC)到 18日的 06点(UTC)
风速12节,风向南转南东
能見度: 8.0公里
多云层高于15000英尺
轻雾
从 17日的 1400点(UTC)
风速8节,风向
能見度: 9.7公里
阴天层高于7000英尺
轻雾
从 17日的 1600点(UTC)
风速5节,风向西南
能見度: 9.7公里
散云层高于1000英尺
阴天层高于3500英尺
小雪, 雨
从 17日的 1800点(UTC)
风速6节,风向西转西北
能見度: 10公里
阴天层高于2000英尺
从 18日的 0200点(UTC)
风速7节,风向西北
能見度: 10公里
散云层高于2500英尺

TAF: KCID 170520Z 1706/1806 15012KT 5SM BR BKN150 FM171400 19008KT 6SM BR OVC070 FM171600 22005KT 6SM -SNRA SCT010 OVC035 FM171800 29006KT P6SM OVC020 FM180200 31007KT P6SM SCT025

超过4000个机场的气象观测和天气预报(METAR&TAF报告)。

可查询的气象台以黄色和红色小点在地图上表示。

将鼠标移到小点上方,可查看气象台名称。

然后点击查看天气观测和预报。

如需切换地图:点击带黑十字的绿色按钮放大地图;点击带横线的绿色按钮缩小地图;或者点击绿色箭头查看邻近地区的地图。


METAR-TAF: